M I D A S
Marine Information and Data Acquisition System
Tripno 1076 of the Zeeleeuw from 2006-04-26 06:45:50 to 2006-04-26 13:18:57
Back to CruiseResearch ActivitiesStationsMapUnderway DataData graphs

EquipmentUnitsComments
TimeDGPSUTC
LatitudeDGPSDM.mWGS84
LongitudeDGPSDM.mWGS84
SpeedMeteo Stationm/sRelative wind speed
DirectionMeteo StationdegRelative wind direction
TemperatureMeteo Stationdeg CelciusAir temperature
PressureMeteo StationPaAtmospheric pressure
HumidityMeteo Station%Relative humidity
Missing or incorrect values are displayed as -999
Metereological data collected by the RV Zeeleeuw from 2006-04-26 06:33:57 to 2006-04-26 13:17:11
                                                                                    Next 1000 lines
Time Latitude Longitude Speed Direction Temperature Pressure Humidity
2006-04-26 06:34:07 51°13.601 2°56.095 -999 176 9.7 101900 100
2006-04-26 06:34:11 51°13.601 2°56.093 -999 186 9.7 101900 100
2006-04-26 06:34:15 51°13.602 2°56.091 -999 187 9.7 101900 100
2006-04-26 06:34:21 51°13.602 2°56.087 -999 184 9.8 101910 100
2006-04-26 06:34:26 51°13.603 2°56.083 -999 182 9.8 101910 100
2006-04-26 06:34:31 51°13.604 2°56.079 -999 175 9.8 101910 100
2006-04-26 06:34:37 51°13.605 2°56.073 -999 -999 9.8 101910 100
2006-04-26 06:34:41 51°13.606 2°56.068 -999 172 9.8 101910 100
2006-04-26 06:34:46 51°13.607 2°56.063 -999 174 9.8 101910 100
2006-04-26 06:34:51 51°13.609 2°56.056 -999 172 9.9 101900 100
2006-04-26 06:34:57 51°13.61 2°56.047 -999 171 9.9 101900 100
2006-04-26 06:35:01 51°13.611 2°56.04 -999 190 9.9 101900 100
2006-04-26 06:35:07 51°13.614 2°56.03 -999 180 9.9 101900 100
2006-04-26 06:35:11 51°13.615 2°56.022 -999 190 9.9 101900 100
2006-04-26 06:35:17 51°13.617 2°56.011 -999 177 9.9 101900 100
2006-04-26 06:35:21 51°13.618 2°56.003 -999 180 9.9 101900 100
2006-04-26 06:35:26 51°13.62 2°55.994 -999 183 9.9 101900 100
2006-04-26 06:35:31 51°13.622 2°55.984 -999 169 10 101900 100
2006-04-26 06:35:37 51°13.625 2°55.972 -999 175 10 101900 100
2006-04-26 06:35:41 51°13.627 2°55.964 -999 162 10 101900 100
2006-04-26 06:35:47 51°13.631 2°55.952 -999 165 10 101900 100
2006-04-26 06:35:51 51°13.633 2°55.944 -999 174 10.1 101900 100
2006-04-26 06:35:56 51°13.637 2°55.935 -999 164 10.1 101900 100
2006-04-26 06:36:02 51°13.641 2°55.923 -999 164 10.2 101900 100
2006-04-26 06:36:07 51°13.645 2°55.914 -999 160 10.2 101900 100
2006-04-26 06:36:11 51°13.648 2°55.906 -999 155 10.1 101900 100
2006-04-26 06:36:17 51°13.653 2°55.895 -999 157 10.1 101900 100
2006-04-26 06:36:21 51°13.657 2°55.888 -999 158 10 101900 100
2006-04-26 06:36:27 51°13.662 2°55.877 -999 164 10 101900 100
2006-04-26 06:36:31 51°13.666 2°55.87 -999 161 10 101910 100
2006-04-26 06:36:36 51°13.67 2°55.861 -999 161 10 101910 100
2006-04-26 06:36:41 51°13.675 2°55.853 -999 155 10 101910 100
2006-04-26 06:36:47 51°13.68 2°55.843 -999 158 10 101910 100
2006-04-26 06:36:51 51°13.684 2°55.836 -999 154 10 101900 100
2006-04-26 06:36:57 51°13.689 2°55.825 -999 161 10 101900 100
2006-04-26 06:37:01 51°13.693 2°55.818 -999 163 9.9 101910 100
2006-04-26 06:37:07 51°13.698 2°55.807 -999 167 9.9 101910 100
2006-04-26 06:37:11 51°13.701 2°55.8 -999 167 9.9 101900 100
2006-04-26 06:37:17 51°13.705 2°55.79 -999 185 9.9 101900 100
2006-04-26 06:37:21 51°13.707 2°55.783 -999 190 9.9 101900 100
2006-04-26 06:37:27 51°13.711 2°55.773 -999 184 9.9 101900 100
2006-04-26 06:37:31 51°13.713 2°55.767 -999 175 9.8 101900 100
2006-04-26 06:37:36 51°13.715 2°55.76 -999 179 9.8 101900 100
2006-04-26 06:37:41 51°13.717 2°55.752 -999 167 9.8 101910 100
2006-04-26 06:37:46 51°13.719 2°55.746 -999 161 9.8 101910 100
2006-04-26 06:37:51 51°13.719 2°55.74 -999 156 9.8 101910 100
2006-04-26 06:37:56 51°13.72 2°55.734 -999 161 9.8 101910 100
2006-04-26 06:38:01 51°13.721 2°55.729 -999 179 9.8 101910 100
2006-04-26 06:38:06 51°13.722 2°55.725 -999 175 9.8 101910 100
2006-04-26 06:38:11 51°13.723 2°55.722 -999 169 9.8 101910 100
2006-04-26 06:38:16 51°13.723 2°55.719 -999 203 9.8 101910 100
2006-04-26 06:38:21 51°13.724 2°55.717 -999 197 9.8 101910 100
2006-04-26 06:38:27 51°13.724 2°55.715 -999 192 9.8 101910 100
2006-04-26 06:38:31 51°13.724 2°55.715 -999 223 9.8 101910 100
2006-04-26 06:38:36 51°13.725 2°55.715 -999 238 9.8 101910 100
2006-04-26 06:38:41 51°13.725 2°55.715 -999 235 9.8 101910 100
2006-04-26 06:38:46 51°13.726 2°55.716 -999 239 9.8 101910 100
2006-04-26 06:38:51 51°13.726 2°55.717 -999 258 9.8 101910 100
2006-04-26 06:38:55 51°13.727 2°55.718 -999 255 9.8 101910 100
2006-04-26 06:39:01 51°13.728 2°55.72 -999 261 9.9 101910 100
2006-04-26 06:39:07 51°13.729 2°55.722 -999 264 9.9 101910 100
2006-04-26 06:39:11 51°13.73 2°55.724 -999 229 10 101910 100
2006-04-26 06:39:17 51°13.731 2°55.725 -999 224 10 101910 100
2006-04-26 06:39:21 51°13.732 2°55.726 -999 220 9.9 101910 100
2006-04-26 06:39:27 51°13.732 2°55.726 -999 234 9.9 101910 100
2006-04-26 06:39:31 51°13.732 2°55.726 -999 234 9.9 101910 100
2006-04-26 06:39:37 51°13.732 2°55.725 -999 228 9.9 101910 100
2006-04-26 06:39:41 51°13.731 2°55.725 -999 230 9.9 101910 100
2006-04-26 06:39:46 51°13.73 2°55.724 -999 242 9.9 101910 100
2006-04-26 06:39:51 51°13.729 2°55.722 -999 229 9.9 101910 100
2006-04-26 06:39:57 51°13.727 2°55.72 -999 227 9.9 101910 100
2006-04-26 06:40:01 51°13.726 2°55.719 -999 248 9.9 101910 100
2006-04-26 06:40:07 51°13.725 2°55.717 -999 262 9.9 101910 100
2006-04-26 06:40:11 51°13.724 2°55.716 -999 250 9.9 101920 100
2006-04-26 06:40:17 51°13.724 2°55.715 -999 254 9.9 101920 100
2006-04-26 06:40:21 51°13.724 2°55.715 -999 247 9.8 101920 100
2006-04-26 06:40:27 51°13.725 2°55.716 -999 250 9.8 101920 100
2006-04-26 06:40:31 51°13.726 2°55.716 -999 268 9.8 101920 100
2006-04-26 06:40:36 51°13.728 2°55.717 -999 275 9.8 101920 100
2006-04-26 06:40:41 51°13.731 2°55.717 -999 287 9.8 101920 100
2006-04-26 06:40:46 51°13.734 2°55.717 -999 311 9.8 101920 100
2006-04-26 06:40:51 51°13.738 2°55.716 -999 289 9.8 101920 100
2006-04-26 06:40:55 51°13.741 2°55.715 -999 322 9.8 101920 100
2006-04-26 06:41:01 51°13.746 2°55.713 -999 312 9.8 101920 100
2006-04-26 06:41:06 51°13.751 2°55.71 -999 311 9.8 101920 100
2006-04-26 06:41:11 51°13.756 2°55.706 -999 333 9.8 101910 100
2006-04-26 06:41:16 51°13.762 2°55.701 -999 330 9.8 101910 100
2006-04-26 06:41:21 51°13.769 2°55.696 -999 337 9.8 101920 100
2006-04-26 06:41:26 51°13.776 2°55.689 -999 350 9.8 101920 100
2006-04-26 06:41:31 51°13.784 2°55.683 -999 349 9.8 101910 100
2006-04-26 06:41:36 51°13.792 2°55.676 -999 357 9.8 101910 100
2006-04-26 06:41:41 51°13.8 2°55.668 -999 358 9.8 101910 100
2006-04-26 06:41:46 51°13.809 2°55.66 -999 359 9.8 101910 100
2006-04-26 06:41:51 51°13.818 2°55.652 -999 26 9.8 101910 100
2006-04-26 06:41:56 51°13.827 2°55.644 -999 342 9.8 101910 100
2006-04-26 06:42:01 51°13.836 2°55.637 -999 358 9.8 101910 100
2006-04-26 06:42:06 51°13.846 2°55.629 -999 349 9.8 101910 100
2006-04-26 06:42:11 51°13.856 2°55.621 -999 327 9.8 101910 100
2006-04-26 06:42:17 51°13.869 2°55.612 -999 333 9.8 101910 100
2006-04-26 06:42:21 51°13.877 2°55.606 -999 333 9.8 101910 100
2006-04-26 06:42:26 51°13.887 2°55.598 -999 338 9.8 101910 100
2006-04-26 06:42:31 51°13.898 2°55.59 -999 337 9.8 101910 100
2006-04-26 06:42:37 51°13.911 2°55.581 -999 333 9.8 101910 100
2006-04-26 06:42:41 51°13.92 2°55.575 -999 342 9.8 101910 100
2006-04-26 06:42:47 51°13.933 2°55.567 -999 339 9.8 101910 100
2006-04-26 06:42:51 51°13.942 2°55.561 -999 328 9.8 101910 100
2006-04-26 06:42:57 51°13.955 2°55.552 -999 323 9.8 101910 100
2006-04-26 06:43:01 51°13.964 2°55.546 -999 324 9.8 101910 100
2006-04-26 06:43:07 51°13.977 2°55.537 -999 333 9.8 101910 100
2006-04-26 06:43:11 51°13.986 2°55.531 -999 351 9.8 101910 100
2006-04-26 06:43:16 51°13.996 2°55.524 -999 341 9.8 101910 100
2006-04-26 06:43:21 51°14.006 2°55.517 -999 334 9.8 101900 100
2006-04-26 06:43:27 51°14.017 2°55.508 -999 323 9.8 101900 100
2006-04-26 06:43:31 51°14.024 2°55.503 -999 344 9.7 101910 100
2006-04-26 06:43:37 51°14.034 2°55.496 -999 329 9.7 101910 100
2006-04-26 06:43:41 51°14.04 2°55.491 -999 335 9.7 101910 100
2006-04-26 06:43:47 51°14.05 2°55.483 -999 324 9.7 101910 100
2006-04-26 06:43:51 51°14.056 2°55.479 -999 308 9.7 101910 100
2006-04-26 06:43:56 51°14.064 2°55.473 -999 319 9.7 101910 100
2006-04-26 06:44:01 51°14.071 2°55.467 -999 345 9.7 101910 100
2006-04-26 06:44:06 51°14.079 2°55.461 -999 338 9.7 101910 100
2006-04-26 06:44:11 51°14.085 2°55.456 -999 338 9.7 101900 100
2006-04-26 06:44:17 51°14.094 2°55.449 -999 352 9.7 101900 100
2006-04-26 06:44:21 51°14.099 2°55.445 -999 339 9.7 101910 100
2006-04-26 06:44:26 51°14.105 2°55.44 -999 337 9.7 101910 100
2006-04-26 06:44:31 51°14.112 2°55.434 -999 326 9.7 101910 100
2006-04-26 06:44:36 51°14.118 2°55.429 -999 315 9.7 101910 100
2006-04-26 06:44:41 51°14.125 2°55.424 -999 313 9.7 101910 100
2006-04-26 06:44:46 51°14.132 2°55.418 -999 318 9.7 101910 100
2006-04-26 06:44:51 51°14.139 2°55.412 -999 316 9.7 101910 100
2006-04-26 06:44:56 51°14.146 2°55.406 -999 321 9.7 101910 100
2006-04-26 06:45:01 51°14.153 2°55.4 -999 338 9.7 101910 100
2006-04-26 06:45:06 51°14.16 2°55.392 -999 329 9.7 101910 100
2006-04-26 06:45:11 51°14.167 2°55.385 -999 312 9.6 101920 100
2006-04-26 06:45:16 51°14.175 2°55.377 -999 343 9.6 101920 100
2006-04-26 06:45:21 51°14.182 2°55.368 -999 333 9.6 101920 100
2006-04-26 06:45:27 51°14.191 2°55.357 -999 325 9.6 101920 100
2006-04-26 06:45:31 51°14.197 2°55.35 -999 332 9.6 101920 100
2006-04-26 06:45:36 51°14.205 2°55.34 -999 327 9.6 101920 100
2006-04-26 06:45:41 51°14.212 2°55.329 -999 327 9.6 101910 100
2006-04-26 06:45:46 51°14.22 2°55.319 -999 328 9.6 101910 100
2006-04-26 06:45:51 51°14.228 2°55.308 -999 323 9.6 101910 100
2006-04-26 06:45:56 51°14.236 2°55.297 -999 327 9.6 101910 100
2006-04-26 06:46:01 51°14.243 2°55.286 -999 326 9.6 101910 100
2006-04-26 06:46:06 51°14.251 2°55.274 -999 326 9.6 101910 100
2006-04-26 06:46:11 51°14.259 2°55.261 -999 328 9.6 101900 100
2006-04-26 06:46:16 51°14.267 2°55.248 -999 334 9.6 101900 100
2006-04-26 06:46:21 51°14.275 2°55.235 -999 334 9.6 101900 100
2006-04-26 06:46:26 51°14.283 2°55.221 -999 332 9.6 101900 100
2006-04-26 06:46:31 51°14.291 2°55.207 -999 343 9.6 101900 100
2006-04-26 06:46:36 51°14.299 2°55.192 -999 353 9.6 101900 100
2006-04-26 06:46:41 51°14.308 2°55.178 -999 324 9.6 101900 100
2006-04-26 06:46:46 51°14.317 2°55.164 -999 340 9.6 101900 100
2006-04-26 06:46:51 51°14.326 2°55.15 -999 332 9.6 101910 100
2006-04-26 06:46:56 51°14.335 2°55.135 -999 334 9.6 101910 100
2006-04-26 06:47:01 51°14.345 2°55.12 -999 335 9.6 101910 100
2006-04-26 06:47:06 51°14.354 2°55.105 -999 332 9.6 101910 100
2006-04-26 06:47:11 51°14.364 2°55.089 -999 327 9.6 101900 100
2006-04-26 06:47:15 51°14.372 2°55.077 -999 328 9.6 101900 100
2006-04-26 06:47:20 51°14.382 2°55.06 -999 333 9.6 101900 100
2006-04-26 06:47:26 51°14.394 2°55.04 -999 328 9.6 101900 100
2006-04-26 06:47:30 51°14.402 2°55.026 -999 327 9.5 101890 100
2006-04-26 06:47:35 51°14.412 2°55.009 -999 323 9.5 101890 100
2006-04-26 06:47:40 51°14.423 2°54.992 -999 319 9.5 101890 100
2006-04-26 06:47:46 51°14.438 2°54.974 -999 318 9.5 101890 100
2006-04-26 06:47:51 51°14.45 2°54.959 -999 319 9.5 101890 100
2006-04-26 06:47:56 51°14.464 2°54.946 -999 317 9.5 101890 100
2006-04-26 06:48:01 51°14.478 2°54.934 -999 41 9.5 101880 100
2006-04-26 06:48:06 51°14.492 2°54.923 -999 42 9.5 101880 100
2006-04-26 06:48:11 51°14.506 2°54.911 -999 317 9.5 101890 100
2006-04-26 06:48:16 51°14.52 2°54.899 -999 316 9.5 101890 100
2006-04-26 06:48:20 51°14.532 2°54.889 -999 227 9.5 101890 100
2006-04-26 06:48:25 51°14.546 2°54.876 -999 316 9.5 101890 100
2006-04-26 06:48:31 51°14.563 2°54.859 -999 320 9.5 101880 100
2006-04-26 06:48:35 51°14.575 2°54.848 -999 325 9.5 101880 100
2006-04-26 06:48:40 51°14.589 2°54.833 -999 321 9.5 101890 100
2006-04-26 06:48:45 51°14.604 2°54.817 -999 322 9.5 101890 100
2006-04-26 06:48:51 51°14.619 2°54.8 -999 333 9.4 101880 100
2006-04-26 06:48:56 51°14.633 2°54.784 -999 325 9.4 101880 100
2006-04-26 06:49:00 51°14.644 2°54.771 -999 323 9.4 101880 100
2006-04-26 06:49:07 51°14.664 2°54.749 -999 321 9.4 101880 100
2006-04-26 06:49:12 51°14.678 2°54.734 -999 320 9.4 101880 100
2006-04-26 06:49:16 51°14.69 2°54.722 -999 318 9.4 101880 100
2006-04-26 06:49:22 51°14.709 2°54.705 -999 318 9.4 101880 100
2006-04-26 06:49:27 51°14.724 2°54.693 -999 317 9.4 101880 100
2006-04-26 06:49:31 51°14.736 2°54.682 -999 317 9.4 101880 100
2006-04-26 06:49:36 51°14.752 2°54.671 -999 315 9.4 101880 100
2006-04-26 06:49:42 51°14.771 2°54.657 -999 317 9.4 101890 100
2006-04-26 06:49:46 51°14.783 2°54.646 -999 316 9.4 101890 100
2006-04-26 06:49:50 51°14.796 2°54.637 -999 315 9.4 101890 100
2006-04-26 06:49:56 51°14.814 2°54.622 -999 41 9.4 101890 100
2006-04-26 06:50:00 51°14.827 2°54.612 -999 316 9.4 101890 100
2006-04-26 06:50:06 51°14.845 2°54.595 -999 318 9.4 101890 100
2006-04-26 06:50:11 51°14.86 2°54.58 -999 320 9.4 101880 100
2006-04-26 06:50:16 51°14.874 2°54.565 -999 330 9.4 101880 100
2006-04-26 06:50:20 51°14.886 2°54.552 -999 321 9.3 101890 100
2006-04-26 06:50:26 51°14.903 2°54.533 -999 324 9.3 101890 100
2006-04-26 06:50:32 51°14.92 2°54.514 -999 320 9.3 101890 100
2006-04-26 06:50:36 51°14.931 2°54.501 -999 324 9.3 101890 100
2006-04-26 06:50:40 51°14.943 2°54.488 -999 321 9.3 101890 100
2006-04-26 06:50:47 51°14.963 2°54.466 -999 320 9.3 101890 100
2006-04-26 06:50:52 51°14.978 2°54.451 -999 317 9.3 101880 100
2006-04-26 06:50:56 51°14.99 2°54.44 -999 319 9.3 101880 100
2006-04-26 06:51:00 51°15.002 2°54.429 -999 317 9.3 101890 100
2006-04-26 06:51:07 51°15.022 2°54.411 -999 320 9.3 101890 100
2006-04-26 06:51:11 51°15.035 2°54.401 -999 322 9.3 101890 100
2006-04-26 06:51:16 51°15.05 2°54.388 -999 323 9.3 101890 100
2006-04-26 06:51:20 51°15.062 2°54.378 -999 317 9.3 101890 100
2006-04-26 06:51:26 51°15.08 2°54.363 -999 319 9.3 101890 100
2006-04-26 06:51:30 51°15.092 2°54.354 -999 314 9.3 101890 100
2006-04-26 06:51:36 51°15.11 2°54.339 -999 315 9.3 101890 100
2006-04-26 06:51:40 51°15.123 2°54.329 -999 227 9.3 101890 100
2006-04-26 06:51:46 51°15.141 2°54.315 -999 227 9.3 101890 100
2006-04-26 06:51:50 51°15.154 2°54.305 -999 44 9.3 101890 100
2006-04-26 06:51:56 51°15.172 2°54.29 -999 319 9.3 101890 100
2006-04-26 06:52:00 51°15.184 2°54.279 -999 323 9.3 101890 100
2006-04-26 06:52:07 51°15.204 2°54.259 -999 325 9.3 101890 100
2006-04-26 06:52:11 51°15.216 2°54.247 -999 323 9.2 101890 100
2006-04-26 06:52:16 51°15.23 2°54.23 -999 321 9.2 101890 100
2006-04-26 06:52:22 51°15.247 2°54.209 -999 321 9.2 101890 100
2006-04-26 06:52:26 51°15.258 2°54.196 -999 323 9.2 101890 100
2006-04-26 06:52:30 51°15.27 2°54.182 -999 321 9.2 101890 100
2006-04-26 06:52:36 51°15.286 2°54.162 -999 323 9.2 101890 100
2006-04-26 06:52:40 51°15.298 2°54.148 -999 323 9.2 101890 100
2006-04-26 06:52:47 51°15.318 2°54.125 -999 322 9.2 101890 100
2006-04-26 06:52:52 51°15.333 2°54.109 -999 323 9.2 101890 100
2006-04-26 06:52:56 51°15.345 2°54.098 -999 320 9.2 101890 100
2006-04-26 06:53:00 51°15.357 2°54.087 -999 324 9.2 101890 100
2006-04-26 06:53:06 51°15.375 2°54.071 -999 321 9.2 101890 100
2006-04-26 06:53:11 51°15.392 2°54.058 -999 319 9.2 101890 100
2006-04-26 06:53:16 51°15.407 2°54.046 -999 320 9.2 101890 100
2006-04-26 06:53:20 51°15.42 2°54.036 -999 320 9.2 101890 100
2006-04-26 06:53:26 51°15.439 2°54.021 -999 320 9.2 101890 100
2006-04-26 06:53:31 51°15.454 2°54.009 -999 323 9.2 101890 100
2006-04-26 06:53:36 51°15.47 2°53.996 -999 322 9.2 101890 100
2006-04-26 06:53:40 51°15.482 2°53.985 -999 321 9.2 101890 100
2006-04-26 06:53:47 51°15.504 2°53.965 -999 322 9.2 101890 100
2006-04-26 06:53:51 51°15.516 2°53.953 -999 324 9.1 101890 100
2006-04-26 06:53:56 51°15.531 2°53.939 -999 325 9.1 101890 100
2006-04-26 06:54:02 51°15.549 2°53.92 -999 325 9.1 101890 100
2006-04-26 06:54:07 51°15.564 2°53.906 -999 323 9.1 101890 100
2006-04-26 06:54:11 51°15.576 2°53.895 -999 320 9.2 101880 100
2006-04-26 06:54:16 51°15.591 2°53.881 -999 318 9.2 101880 100
2006-04-26 06:54:20 51°15.604 2°53.87 -999 318 9.2 101890 100
2006-04-26 06:54:26 51°15.622 2°53.855 -999 42 9.2 101890 100
2006-04-26 06:54:32 51°15.641 2°53.84 -999 316 9.1 101880 100
2006-04-26 06:54:36 51°15.654 2°53.83 -999 43 9.1 101880 100
2006-04-26 06:54:42 51°15.672 2°53.816 -999 319 9.2 101880 100
2006-04-26 06:54:47 51°15.688 2°53.803 -999 319 9.2 101880 100
2006-04-26 06:54:52 51°15.704 2°53.791 -999 317 9.1 101890 100
2006-04-26 06:54:56 51°15.717 2°53.781 -999 320 9.1 101890 100
2006-04-26 06:55:00 51°15.729 2°53.772 -999 318 9.1 101880 100
2006-04-26 06:55:07 51°15.751 2°53.754 -999 42 9.1 101880 100
2006-04-26 06:55:12 51°15.766 2°53.741 -999 43 9.1 101890 100
2006-04-26 06:55:16 51°15.779 2°53.73 -999 42 9.1 101890 100
2006-04-26 06:55:20 51°15.791 2°53.72 -999 321 9.1 101890 100
2006-04-26 06:55:26 51°15.81 2°53.703 -999 327 9.1 101890 100
2006-04-26 06:55:32 51°15.828 2°53.687 -999 320 9.1 101880 100
2006-04-26 06:55:36 51°15.84 2°53.677 -999 320 9.1 101880 100
2006-04-26 06:55:42 51°15.859 2°53.66 -999 317 9.1 101880 100
2006-04-26 06:55:46 51°15.871 2°53.65 -999 318 9.1 101880 100
2006-04-26 06:55:51 51°15.886 2°53.636 -999 323 9.1 101890 100
2006-04-26 06:55:56 51°15.902 2°53.622 -999 319 9.1 101890 100
2006-04-26 06:56:00 51°15.914 2°53.612 -999 320 9.1 101880 100
2006-04-26 06:56:07 51°15.935 2°53.593 -999 317 9.1 101880 100
2006-04-26 06:56:12 51°15.951 2°53.579 -999 316 9.1 101890 100
2006-04-26 06:56:17 51°15.966 2°53.566 -999 318 9.1 101890 100
2006-04-26 06:56:20 51°15.975 2°53.557 -999 316 9.1 101880 100
2006-04-26 06:56:27 51°15.997 2°53.539 -999 41 9.1 101880 100
2006-04-26 06:56:31 51°16.009 2°53.528 -999 316 9.1 101880 100
2006-04-26 06:56:36 51°16.024 2°53.516 -999 226 9.1 101880 100
2006-04-26 06:56:42 51°16.043 2°53.5 -999 316 9.1 101870 100
2006-04-26 06:56:47 51°16.059 2°53.489 -999 42 9.1 101870 100
2006-04-26 06:56:51 51°16.071 2°53.479 -999 229 9.1 101870 100
2006-04-26 06:56:56 51°16.087 2°53.467 -999 315 9.1 101870 100
2006-04-26 06:57:01 51°16.103 2°53.454 -999 44 9 101880 100
2006-04-26 06:57:07 51°16.121 2°53.439 -999 319 9 101880 100
2006-04-26 06:57:11 51°16.134 2°53.428 -999 318 9 101880 100
2006-04-26 06:57:17 51°16.152 2°53.413 -999 317 9 101880 100
2006-04-26 06:57:22 51°16.168 2°53.399 -999 319 9 101880 100
2006-04-26 06:57:27 51°16.183 2°53.386 -999 320 9 101880 100
2006-04-26 06:57:31 51°16.196 2°53.376 -999 317 9 101880 100
2006-04-26 06:57:36 51°16.212 2°53.363 -999 -999 9 101880 100
2006-04-26 06:57:40 51°16.224 2°53.353 -999 318 9 101880 100
2006-04-26 06:57:46 51°16.243 2°53.339 -999 316 9 101880 100
2006-04-26 06:57:52 51°16.262 2°53.325 -999 316 9 101880 100
2006-04-26 06:57:57 51°16.278 2°53.315 -999 317 9 101880 100
2006-04-26 06:58:02 51°16.294 2°53.304 -999 313 9 101880 100
2006-04-26 06:58:07 51°16.311 2°53.293 -999 228 9 101880 100
2006-04-26 06:58:11 51°16.323 2°53.284 -999 44 9 101880 100
2006-04-26 06:58:16 51°16.339 2°53.273 -999 314 9 101880 100
2006-04-26 06:58:21 51°16.355 2°53.261 -999 320 9 101880 100
2006-04-26 06:58:27 51°16.374 2°53.247 -999 317 9 101880 100
2006-04-26 06:58:31 51°16.386 2°53.237 -999 322 9 101890 100
2006-04-26 06:58:36 51°16.402 2°53.225 -999 319 9 101890 100
2006-04-26 06:58:42 51°16.421 2°53.21 -999 318 9 101880 100
2006-04-26 06:58:47 51°16.437 2°53.198 -999 319 9 101880 100
2006-04-26 06:58:51 51°16.449 2°53.189 -999 316 9 101880 100
2006-04-26 06:58:56 51°16.465 2°53.178 -999 316 9 101880 100
2006-04-26 06:59:00 51°16.478 2°53.169 -999 43 9 101880 100
2006-04-26 06:59:07 51°16.5 2°53.152 -999 314 9 101880 100
2006-04-26 06:59:12 51°16.516 2°53.141 -999 229 9 101880 100
2006-04-26 06:59:17 51°16.532 2°53.128 -999 43 9 101880 100
2006-04-26 06:59:21 51°16.544 2°53.119 -999 318 8.9 101880 100
2006-04-26 06:59:27 51°16.563 2°53.104 -999 321 8.9 101880 100
2006-04-26 06:59:31 51°16.575 2°53.095 -999 323 8.9 101880 100
2006-04-26 06:59:36 51°16.591 2°53.082 -999 326 8.9 101880 100
2006-04-26 06:59:41 51°16.607 2°53.07 -999 325 8.9 101880 100
2006-04-26 06:59:46 51°16.623 2°53.059 -999 325 8.9 101880 100
2006-04-26 06:59:52 51°16.641 2°53.045 -999 322 8.9 101890 100
2006-04-26 06:59:56 51°16.654 2°53.036 -999 318 8.9 101890 100
2006-04-26 07:00:01 51°16.67 2°53.024 -999 321 8.9 101880 100
2006-04-26 07:00:07 51°16.689 2°53.011 -999 319 8.9 101880 100
2006-04-26 07:00:11 51°16.701 2°53.002 -999 317 8.9 101880 100
2006-04-26 07:00:17 51°16.72 2°52.988 -999 318 8.9 101880 100
2006-04-26 07:00:22 51°16.736 2°52.977 -999 317 8.9 101880 100
2006-04-26 07:00:27 51°16.752 2°52.966 -999 317 8.9 101880 100
2006-04-26 07:00:31 51°16.764 2°52.956 -999 318 8.9 101880 100
2006-04-26 07:00:37 51°16.782 2°52.943 -999 319 8.9 101880 100
2006-04-26 07:00:41 51°16.795 2°52.934 -999 318 8.9 101880 100
2006-04-26 07:00:46 51°16.81 2°52.922 -999 321 8.9 101880 100
2006-04-26 07:00:51 51°16.825 2°52.91 -999 319 8.9 101880 100
2006-04-26 07:00:56 51°16.84 2°52.899 -999 319 8.9 101880 100
2006-04-26 07:01:02 51°16.858 2°52.885 -999 319 8.9 101880 100
2006-04-26 07:01:07 51°16.873 2°52.874 -999 43 8.9 101880 100
2006-04-26 07:01:11 51°16.885 2°52.865 -999 317 8.9 101880 100
2006-04-26 07:01:16 51°16.9 2°52.853 -999 319 8.9 101880 100
2006-04-26 07:01:22 51°16.918 2°52.838 -999 319 8.9 101880 100
2006-04-26 07:01:27 51°16.933 2°52.826 -999 317 8.9 101880 100
2006-04-26 07:01:32 51°16.948 2°52.814 -999 320 8.9 101880 100
2006-04-26 07:01:37 51°16.964 2°52.802 -999 319 8.9 101880 100
2006-04-26 07:01:41 51°16.975 2°52.792 -999 43 8.9 101880 100
2006-04-26 07:01:47 51°16.994 2°52.777 -999 42 8.9 101880 100
2006-04-26 07:01:51 51°17.007 2°52.768 -999 311 8.9 101880 100
2006-04-26 07:01:56 51°17.022 2°52.757 -999 313 8.9 101880 100
2006-04-26 07:02:01 51°17.038 2°52.747 -999 227 8.9 101880 100
2006-04-26 07:02:07 51°17.057 2°52.734 -999 40 8.9 101880 100
2006-04-26 07:02:11 51°17.07 2°52.725 -999 316 8.9 101880 100
2006-04-26 07:02:17 51°17.089 2°52.713 -999 316 8.9 101880 100
2006-04-26 07:02:22 51°17.104 2°52.702 -999 315 8.9 101880 100
2006-04-26 07:02:27 51°17.12 2°52.691 -999 318 8.9 101880 100
2006-04-26 07:02:31 51°17.132 2°52.682 -999 41 8.9 101880 100
2006-04-26 07:02:36 51°17.147 2°52.671 -999 314 8.9 101880 100
2006-04-26 07:02:40 51°17.159 2°52.661 -999 317 8.9 101880 100
2006-04-26 07:02:46 51°17.177 2°52.646 -999 316 8.9 101880 100
2006-04-26 07:02:52 51°17.195 2°52.632 -999 229 8.9 101880 100
2006-04-26 07:02:57 51°17.21 2°52.62 -999 228 8.9 101880 100
2006-04-26 07:03:02 51°17.226 2°52.608 -999 322 8.9 101880 100
2006-04-26 07:03:07 51°17.241 2°52.596 -999 40 8.9 101880 100
2006-04-26 07:03:11 51°17.253 2°52.587 -999 315 8.9 101880 100
2006-04-26 07:03:16 51°17.268 2°52.576 -999 315 8.9 101880 100
2006-04-26 07:03:22 51°17.287 2°52.562 -999 314 8.9 101880 100
2006-04-26 07:03:27 51°17.302 2°52.55 -999 311 8.9 101880 100
2006-04-26 07:03:31 51°17.315 2°52.541 -999 232 8.9 101880 100
2006-04-26 07:03:37 51°17.333 2°52.527 -999 312 8.9 101880 100
2006-04-26 07:03:42 51°17.348 2°52.515 -999 319 8.9 101880 100
2006-04-26 07:03:46 51°17.36 2°52.504 -999 316 8.9 101880 100
2006-04-26 07:03:51 51°17.375 2°52.492 -999 316 8.8 101870 100
2006-04-26 07:03:56 51°17.39 2°52.479 -999 43 8.8 101870 100
2006-04-26 07:04:02 51°17.408 2°52.465 -999 317 8.8 101880 100
2006-04-26 07:04:07 51°17.424 2°52.453 -999 42 8.8 101880 100
2006-04-26 07:04:11 51°17.436 2°52.443 -999 43 8.9 101880 100
2006-04-26 07:04:17 51°17.454 2°52.43 -999 316 8.9 101880 100
2006-04-26 07:04:20 51°17.463 2°52.423 -999 318 8.8 101870 100
2006-04-26 07:04:26 51°17.481 2°52.408 -999 317 8.8 101870 100
2006-04-26 07:04:32 51°17.499 2°52.394 -999 42 8.9 101870 100
2006-04-26 07:04:36 51°17.512 2°52.385 -999 313 8.9 101870 100
2006-04-26 07:04:40 51°17.524 2°52.375 -999 314 8.8 101880 100
2006-04-26 07:04:47 51°17.546 2°52.359 -999 314 8.8 101880 100
2006-04-26 07:04:51 51°17.558 2°52.351 -999 227 8.8 101870 100
2006-04-26 07:04:56 51°17.574 2°52.342 -999 310 8.8 101870 100
2006-04-26 07:05:00 51°17.587 2°52.335 -999 312 8.8 101870 100
2006-04-26 07:05:06 51°17.606 2°52.325 -999 306 8.8 101870 100
2006-04-26 07:05:11 51°17.622 2°52.318 -999 311 8.8 101880 100
2006-04-26 07:05:16 51°17.638 2°52.311 -999 311 8.8 101880 100
2006-04-26 07:05:22 51°17.658 2°52.304 -999 310 8.8 101880 100
2006-04-26 07:05:27 51°17.674 2°52.301 -999 306 8.8 101880 100
2006-04-26 07:05:32 51°17.691 2°52.297 -999 305 8.8 101880 100
2006-04-26 07:05:36 51°17.704 2°52.296 -999 313 8.8 101880 100
2006-04-26 07:05:41 51°17.721 2°52.293 -999 303 8.8 101890 100
2006-04-26 07:05:47 51°17.74 2°52.293 -999 306 8.8 101890 100
2006-04-26 07:05:51 51°17.754 2°52.292 -999 311 8.8 101890 100
2006-04-26 07:05:56 51°17.77 2°52.291 -999 304 8.8 101890 100
2006-04-26 07:06:01 51°17.786 2°52.29 -999 298 8.8 101890 100
2006-04-26 07:06:07 51°17.806 2°52.289 -999 303 8.8 101890 100
2006-04-26 07:06:11 51°17.819 2°52.288 -999 305 8.8 101890 100
2006-04-26 07:06:16 51°17.836 2°52.286 -999 299 8.8 101890 100
2006-04-26 07:06:21 51°17.852 2°52.284 -999 305 8.8 101880 100
2006-04-26 07:06:27 51°17.872 2°52.283 -999 302 8.8 101880 100
2006-04-26 07:06:31 51°17.885 2°52.283 -999 293 8.8 101880 100
2006-04-26 07:06:36 51°17.901 2°52.283 -999 298 8.8 101880 100
2006-04-26 07:06:42 51°17.921 2°52.286 -999 291 8.8 101880 100
2006-04-26 07:06:46 51°17.934 2°52.289 -999 300 8.8 101880 100
2006-04-26 07:06:52 51°17.953 2°52.295 -999 296 8.8 101880 100
2006-04-26 07:06:57 51°17.969 2°52.302 -999 295 8.8 101880 100
2006-04-26 07:07:00 51°17.978 2°52.305 -999 296 8.8 101890 100
2006-04-26 07:07:07 51°18 2°52.314 -999 293 8.8 101890 100
2006-04-26 07:07:11 51°18.013 2°52.318 -999 296 8.8 101890 100
2006-04-26 07:07:16 51°18.029 2°52.323 -999 296 8.8 101890 100
2006-04-26 07:07:22 51°18.048 2°52.329 -999 298 8.8 101890 100
2006-04-26 07:07:27 51°18.064 2°52.332 -999 292 8.8 101890 100
2006-04-26 07:07:31 51°18.077 2°52.336 -999 294 8.8 101890 100
2006-04-26 07:07:36 51°18.093 2°52.339 -999 299 8.8 101890 100
2006-04-26 07:07:42 51°18.112 2°52.343 -999 298 8.8 101890 100
2006-04-26 07:07:47 51°18.129 2°52.347 -999 291 8.8 101890 100
2006-04-26 07:07:51 51°18.142 2°52.349 -999 296 8.8 101890 100
2006-04-26 07:07:56 51°18.158 2°52.352 -999 299 8.8 101890 100
2006-04-26 07:08:02 51°18.177 2°52.356 -999 299 8.8 101890 100
2006-04-26 07:08:07 51°18.193 2°52.36 -999 296 8.8 101890 100
2006-04-26 07:08:11 51°18.206 2°52.363 -999 289 8.8 101890 100
2006-04-26 07:08:16 51°18.222 2°52.366 -999 292 8.8 101890 100
2006-04-26 07:08:20 51°18.235 2°52.369 -999 289 8.8 101890 100
2006-04-26 07:08:27 51°18.258 2°52.374 -999 298 8.8 101890 100
2006-04-26 07:08:32 51°18.274 2°52.379 -999 288 8.8 101890 100
2006-04-26 07:08:37 51°18.29 2°52.383 -999 288 8.8 101890 100
2006-04-26 07:08:41 51°18.303 2°52.386 -999 289 8.9 101890 100
2006-04-26 07:08:47 51°18.322 2°52.39 -999 302 8.9 101890 100
2006-04-26 07:08:52 51°18.339 2°52.394 -999 294 8.8 101900 100
2006-04-26 07:08:57 51°18.355 2°52.399 -999 293 8.8 101900 100
2006-04-26 07:09:02 51°18.371 2°52.403 -999 285 8.8 101890 100
2006-04-26 07:09:07 51°18.387 2°52.408 -999 288 8.8 101890 100
2006-04-26 07:09:12 51°18.403 2°52.414 -999 285 8.8 101890 100
2006-04-26 07:09:16 51°18.416 2°52.417 -999 285 8.8 101890 100
2006-04-26 07:09:20 51°18.428 2°52.422 -999 290 8.8 101890 100
2006-04-26 07:09:26 51°18.447 2°52.427 -999 293 8.8 101890 100
2006-04-26 07:09:32 51°18.467 2°52.434 -999 302 8.8 101890 100
2006-04-26 07:09:37 51°18.483 2°52.437 -999 297 8.8 101890 100
2006-04-26 07:09:42 51°18.499 2°52.442 -999 297 8.8 101900 100
2006-04-26 07:09:47 51°18.515 2°52.446 -999 304 8.8 101900 100
2006-04-26 07:09:51 51°18.528 2°52.449 -999 296 8.8 101900 100
2006-04-26 07:09:56 51°18.544 2°52.454 -999 291 8.8 101900 100
2006-04-26 07:10:00 51°18.557 2°52.458 -999 293 8.8 101890 100
2006-04-26 07:10:07 51°18.579 2°52.465 -999 291 8.8 101890 100
2006-04-26 07:10:11 51°18.592 2°52.468 -999 306 8.8 101890 100
2006-04-26 07:10:16 51°18.608 2°52.472 -999 295 8.8 101890 100
2006-04-26 07:10:22 51°18.628 2°52.478 -999 298 8.8 101890 100
2006-04-26 07:10:27 51°18.644 2°52.482 -999 299 8.8 101890 100
2006-04-26 07:10:31 51°18.656 2°52.486 -999 297 8.8 101890 100
2006-04-26 07:10:36 51°18.672 2°52.492 -999 295 8.8 101890 100
2006-04-26 07:10:42 51°18.691 2°52.501 -999 293 8.9 101880 100
2006-04-26 07:10:47 51°18.707 2°52.508 -999 291 8.9 101880 100
2006-04-26 07:10:52 51°18.722 2°52.515 -999 287 8.8 101890 100
2006-04-26 07:10:56 51°18.735 2°52.52 -999 295 8.8 101890 100
2006-04-26 07:11:00 51°18.747 2°52.525 -999 287 8.8 101890 100
2006-04-26 07:11:06 51°18.766 2°52.533 -999 288 8.8 101890 100
2006-04-26 07:11:12 51°18.785 2°52.542 -999 283 8.8 101890 100
2006-04-26 07:11:17 51°18.801 2°52.548 -999 295 8.8 101890 100
2006-04-26 07:11:21 51°18.814 2°52.552 -999 295 8.8 101890 100
2006-04-26 07:11:27 51°18.833 2°52.559 -999 297 8.8 101890 100
2006-04-26 07:11:32 51°18.849 2°52.566 -999 292 8.8 101890 100
2006-04-26 07:11:36 51°18.862 2°52.571 -999 291 8.8 101890 100
2006-04-26 07:11:40 51°18.874 2°52.577 -999 293 8.8 101890 100
2006-04-26 07:11:47 51°18.896 2°52.587 -999 285 8.8 101890 100
2006-04-26 07:11:51 51°18.909 2°52.593 -999 298 8.8 101890 100
2006-04-26 07:11:57 51°18.928 2°52.601 -999 286 8.8 101890 100
2006-04-26 07:12:02 51°18.943 2°52.608 -999 300 8.8 101890 100
2006-04-26 07:12:07 51°18.959 2°52.615 -999 297 8.8 101890 100
2006-04-26 07:12:11 51°18.972 2°52.621 -999 296 8.8 101890 100
2006-04-26 07:12:16 51°18.988 2°52.626 -999 295 8.8 101890 100
2006-04-26 07:12:22 51°19.007 2°52.633 -999 293 8.8 101890 100
2006-04-26 07:12:27 51°19.023 2°52.638 -999 295 8.8 101890 100
2006-04-26 07:12:32 51°19.039 2°52.644 -999 301 8.8 101890 100
2006-04-26 07:12:36 51°19.051 2°52.649 -999 290 8.8 101890 100
2006-04-26 07:12:40 51°19.064 2°52.655 -999 286 8.8 101890 100
2006-04-26 07:12:47 51°19.086 2°52.666 -999 284 8.8 101890 100
2006-04-26 07:12:52 51°19.101 2°52.674 -999 299 8.8 101890 100
2006-04-26 07:12:57 51°19.116 2°52.683 -999 288 8.8 101890 100
2006-04-26 07:13:01 51°19.128 2°52.69 -999 289 8.8 101900 100
2006-04-26 07:13:07 51°19.146 2°52.702 -999 286 8.8 101900 100
2006-04-26 07:13:12 51°19.161 2°52.712 -999 282 8.8 101900 100
2006-04-26 07:13:16 51°19.172 2°52.721 -999 280 8.8 101900 100
2006-04-26 07:13:20 51°19.183 2°52.73 -999 272 8.8 101890 100
2006-04-26 07:13:26 51°19.201 2°52.744 -999 294 8.8 101890 100
2006-04-26 07:13:31 51°19.215 2°52.755 -999 281 8.8 101900 100
2006-04-26 07:13:36 51°19.229 2°52.767 -999 278 8.8 101900 100
2006-04-26 07:13:40 51°19.241 2°52.776 -999 280 8.8 101900 100
2006-04-26 07:13:47 51°19.261 2°52.793 -999 287 8.8 101900 100
2006-04-26 07:13:52 51°19.275 2°52.804 -999 285 8.8 101900 100
2006-04-26 07:13:56 51°19.287 2°52.814 -999 283 8.8 101900 100
2006-04-26 07:14:02 51°19.304 2°52.827 -999 289 8.8 101900 100
2006-04-26 07:14:07 51°19.319 2°52.837 -999 288 8.8 101900 100
2006-04-26 07:14:11 51°19.331 2°52.846 -999 286 8.8 101900 100
2006-04-26 07:14:16 51°19.345 2°52.857 -999 289 8.8 101900 100
2006-04-26 07:14:22 51°19.363 2°52.87 -999 286 8.8 101900 100
2006-04-26 07:14:27 51°19.377 2°52.881 -999 283 8.8 101900 100
2006-04-26 07:14:32 51°19.392 2°52.892 -999 294 8.8 101900 100
2006-04-26 07:14:36 51°19.403 2°52.902 -999 287 8.8 101900 100
2006-04-26 07:14:42 51°19.421 2°52.915 -999 287 8.8 101900 100
2006-04-26 07:14:47 51°19.435 2°52.926 -999 290 8.8 101900 100
2006-04-26 07:14:52 51°19.45 2°52.938 -999 291 8.8 101900 100
2006-04-26 07:14:57 51°19.464 2°52.95 -999 281 8.8 101900 100
2006-04-26 07:15:01 51°19.476 2°52.958 -999 293 8.8 101900 100
2006-04-26 07:15:07 51°19.493 2°52.973 -999 283 8.8 101900 100
2006-04-26 07:15:11 51°19.504 2°52.981 -999 287 8.8 101900 100
2006-04-26 07:15:16 51°19.519 2°52.993 -999 290 8.8 101900 100
2006-04-26 07:15:20 51°19.531 2°53.001 -999 287 8.8 101900 100
2006-04-26 07:15:27 51°19.551 2°53.017 -999 287 8.8 101900 100
2006-04-26 07:15:32 51°19.566 2°53.027 -999 284 8.8 101900 100
2006-04-26 07:15:36 51°19.577 2°53.037 -999 286 8.8 101900 100
2006-04-26 07:15:40 51°19.589 2°53.045 -999 280 8.8 101900 100
2006-04-26 07:15:46 51°19.607 2°53.059 -999 280 8.8 101900 100
2006-04-26 07:15:52 51°19.625 2°53.072 -999 278 8.8 101890 100
2006-04-26 07:15:57 51°19.639 2°53.083 -999 289 8.8 101890 100
2006-04-26 07:16:01 51°19.651 2°53.092 -999 279 8.8 101890 100
2006-04-26 07:16:07 51°19.668 2°53.106 -999 278 8.8 101890 100
2006-04-26 07:16:11 51°19.68 2°53.115 -999 279 8.8 101900 100
2006-04-26 07:16:16 51°19.694 2°53.127 -999 278 8.8 101900 100
2006-04-26 07:16:20 51°19.706 2°53.136 -999 294 8.8 101900 100
2006-04-26 07:16:27 51°19.727 2°53.151 -999 298 8.8 101900 100
2006-04-26 07:16:31 51°19.739 2°53.16 -999 287 8.8 101900 100
2006-04-26 07:16:36 51°19.754 2°53.171 -999 286 8.8 101900 100
2006-04-26 07:16:42 51°19.772 2°53.184 -999 292 8.7 101900 100
2006-04-26 07:16:47 51°19.787 2°53.194 -999 290 8.7 101900 100
2006-04-26 07:16:52 51°19.802 2°53.204 -999 287 8.8 101900 100
2006-04-26 07:16:56 51°19.814 2°53.213 -999 290 8.8 101900 100
2006-04-26 07:17:02 51°19.832 2°53.225 -999 285 8.8 101890 100
2006-04-26 07:17:07 51°19.847 2°53.236 -999 294 8.8 101890 100
2006-04-26 07:17:11 51°19.859 2°53.244 -999 287 8.8 101890 100
2006-04-26 07:17:15 51°19.871 2°53.252 -999 283 8.8 101890 100
2006-04-26 07:17:22 51°19.892 2°53.268 -999 285 8.7 101900 100
2006-04-26 07:17:27 51°19.907 2°53.279 -999 288 8.7 101900 100
2006-04-26 07:17:31 51°19.919 2°53.287 -999 282 8.8 101890 100
2006-04-26 07:17:36 51°19.935 2°53.298 -999 283 8.8 101890 100
2006-04-26 07:17:41 51°19.949 2°53.309 -999 285 8.7 101900 100
2006-04-26 07:17:47 51°19.967 2°53.321 -999 282 8.7 101900 100
2006-04-26 07:17:52 51°19.982 2°53.331 -999 274 8.8 101890 100
2006-04-26 07:17:57 51°19.997 2°53.343 -999 281 8.8 101890 100
2006-04-26 07:18:00 51°20.006 2°53.349 -999 277 8.7 101890 100
2006-04-26 07:18:07 51°20.026 2°53.364 -999 284 8.7 101890 100
2006-04-26 07:18:11 51°20.038 2°53.372 -999 280 8.8 101900 100
2006-04-26 07:18:16 51°20.053 2°53.383 -999 273 8.8 101900 100
2006-04-26 07:18:21 51°20.067 2°53.395 -999 277 8.7 101900 100
2006-04-26 07:18:24 51°20.076 2°53.402 -999 278 8.7 101900 100
2006-04-26 07:18:31 51°20.097 2°53.418 -999 284 8.8 101900 100
2006-04-26 07:18:36 51°20.111 2°53.43 -999 275 8.8 101900 100
2006-04-26 07:18:41 51°20.125 2°53.442 -999 275 8.7 101900 100
2006-04-26 07:18:47 51°20.143 2°53.455 -999 274 8.7 101900 100
2006-04-26 07:18:51 51°20.154 2°53.464 -999 275 8.7 101900 100
2006-04-26 07:18:56 51°20.169 2°53.475 -999 276 8.7 101900 100
2006-04-26 07:19:01 51°20.184 2°53.486 -999 282 8.7 101900 100
2006-04-26 07:19:06 51°20.199 2°53.497 -999 278 8.7 101900 100
2006-04-26 07:19:12 51°20.217 2°53.509 -999 289 8.7 101910 100
2006-04-26 07:19:16 51°20.229 2°53.518 -999 274 8.7 101910 100
2006-04-26 07:19:21 51°20.244 2°53.529 -999 271 8.7 101900 100
2006-04-26 07:19:26 51°20.259 2°53.541 -999 273 8.7 101900 100
2006-04-26 07:19:31 51°20.274 2°53.551 -999 279 8.7 101900 100
2006-04-26 07:19:36 51°20.289 2°53.562 -999 290 8.7 101900 100
2006-04-26 07:19:40 51°20.301 2°53.571 -999 280 8.7 101900 100
2006-04-26 07:19:47 51°20.322 2°53.586 -999 283 8.7 101900 100
2006-04-26 07:19:51 51°20.334 2°53.594 -999 284 8.7 101900 100
2006-04-26 07:19:56 51°20.349 2°53.604 -999 288 8.7 101900 100
2006-04-26 07:20:00 51°20.36 2°53.613 -999 281 8.7 101900 100
2006-04-26 07:20:07 51°20.381 2°53.629 -999 280 8.7 101900 100
2006-04-26 07:20:11 51°20.392 2°53.638 -999 289 8.7 101900 100
2006-04-26 07:20:15 51°20.404 2°53.648 -999 294 8.7 101900 100
2006-04-26 07:20:21 51°20.422 2°53.661 -999 281 8.7 101900 100
2006-04-26 07:20:26 51°20.436 2°53.673 -999 286 8.7 101900 100
2006-04-26 07:20:31 51°20.452 2°53.682 -999 276 8.7 101900 100
2006-04-26 07:20:36 51°20.466 2°53.695 -999 281 8.7 101900 100
2006-04-26 07:20:41 51°20.48 2°53.706 -999 289 8.7 101900 100
2006-04-26 07:20:44 51°20.489 2°53.713 -999 283 8.7 101900 100
2006-04-26 07:20:52 51°20.512 2°53.731 -999 290 8.7 101900 100
2006-04-26 07:20:56 51°20.523 2°53.741 -999 293 8.7 101900 100
2006-04-26 07:21:01 51°20.539 2°53.752 -999 290 8.7 101900 100
2006-04-26 07:21:06 51°20.553 2°53.764 -999 290 8.7 101900 100
2006-04-26 07:21:10 51°20.565 2°53.772 -999 293 8.7 101900 100
2006-04-26 07:21:15 51°20.579 2°53.784 -999 299 8.7 101900 100
2006-04-26 07:21:20 51°20.594 2°53.795 -999 295 8.7 101900 100
2006-04-26 07:21:26 51°20.612 2°53.808 -999 284 8.7 101900 100
2006-04-26 07:21:30 51°20.623 2°53.817 -999 286 8.7 101900 100
2006-04-26 07:21:36 51°20.641 2°53.83 -999 291 8.7 101900 100
2006-04-26 07:21:39 51°20.65 2°53.837 -999 294 8.7 101900 100
2006-04-26 07:21:46 51°20.671 2°53.852 -999 282 8.7 101900 100
2006-04-26 07:21:51 51°20.686 2°53.863 -999 278 8.7 101890 100
2006-04-26 07:21:56 51°20.701 2°53.874 -999 286 8.7 101890 100
2006-04-26 07:22:00 51°20.713 2°53.883 -999 288 8.7 101900 100
2006-04-26 07:22:07 51°20.734 2°53.899 -999 281 8.7 101900 100
2006-04-26 07:22:12 51°20.749 2°53.91 -999 281 8.7 101890 100
2006-04-26 07:22:17 51°20.764 2°53.921 -999 279 8.7 101890 100
2006-04-26 07:22:20 51°20.772 2°53.928 -999 275 8.7 101900 100
2006-04-26 07:22:27 51°20.793 2°53.943 -999 293 8.7 101900 100
2006-04-26 07:22:31 51°20.805 2°53.952 -999 289 8.7 101900 100
2006-04-26 07:22:36 51°20.82 2°53.964 -999 -999 8.7 101900 100
2006-04-26 07:22:41 51°20.835 2°53.974 -999 287 8.7 101900 100
2006-04-26 07:22:44 51°20.844 2°53.981 -999 289 8.7 101900 100
2006-04-26 07:22:52 51°20.868 2°53.997 -999 284 8.7 101900 100
2006-04-26 07:22:56 51°20.88 2°54.006 -999 294 8.7 101900 100
2006-04-26 07:23:01 51°20.895 2°54.018 -999 300 8.7 101900 100
2006-04-26 07:23:06 51°20.909 2°54.029 -999 288 8.7 101900 100
2006-04-26 07:23:11 51°20.924 2°54.04 -999 300 8.7 101900 100
2006-04-26 07:23:16 51°20.939 2°54.052 -999 285 8.7 101900 100
2006-04-26 07:23:21 51°20.953 2°54.065 -999 285 8.7 101900 100
2006-04-26 07:23:26 51°20.968 2°54.076 -999 285 8.7 101900 100
2006-04-26 07:23:31 51°20.982 2°54.087 -999 292 8.7 101900 100
2006-04-26 07:23:36 51°20.997 2°54.099 -999 300 8.7 101900 100
2006-04-26 07:23:42 51°21.015 2°54.112 -999 291 8.8 101900 100
2006-04-26 07:23:47 51°21.03 2°54.123 -999 293 8.8 101900 100
2006-04-26 07:23:51 51°21.042 2°54.132 -999 292 8.8 101900 100
2006-04-26 07:23:56 51°21.057 2°54.141 -999 289 8.8 101900 100
2006-04-26 07:24:02 51°21.075 2°54.155 -999 286 8.7 101900 100
2006-04-26 07:24:07 51°21.09 2°54.166 -999 285 8.7 101900 100
2006-04-26 07:24:11 51°21.102 2°54.176 -999 287 8.7 101900 100
2006-04-26 07:24:16 51°21.116 2°54.187 -999 294 8.7 101900 100
2006-04-26 07:24:20 51°21.128 2°54.196 -999 295 8.8 101900 100
2006-04-26 07:24:27 51°21.148 2°54.212 -999 294 8.8 101900 100
2006-04-26 07:24:32 51°21.163 2°54.223 -999 287 8.7 101900 100
2006-04-26 07:24:37 51°21.178 2°54.234 -999 297 8.7 101900 100
2006-04-26 07:24:40 51°21.187 2°54.24 -999 287 8.7 101890 100
2006-04-26 07:24:47 51°21.207 2°54.255 -999 287 8.7 101890 100
2006-04-26 07:24:52 51°21.222 2°54.266 -999 285 8.7 101910 100
2006-04-26 07:24:57 51°21.237 2°54.277 -999 286 8.7 101910 100
2006-04-26 07:25:01 51°21.249 2°54.285 -999 285 8.7 101900 100
2006-04-26 07:25:06 51°21.264 2°54.296 -999 286 8.7 101900 100
2006-04-26 07:25:11 51°21.279 2°54.306 -999 286 8.7 101890 100
2006-04-26 07:25:16 51°21.293 2°54.317 -999 283 8.7 101890 100
2006-04-26 07:25:20 51°21.305 2°54.325 -999 289 8.7 101900 100
2006-04-26 07:25:26 51°21.323 2°54.339 -999 290 8.7 101900 100
2006-04-26 07:25:31 51°21.338 2°54.35 -999 278 8.7 101890 100
2006-04-26 07:25:36 51°21.352 2°54.36 -999 290 8.7 101890 100
2006-04-26 07:25:41 51°21.367 2°54.372 -999 281 8.7 101900 100
2006-04-26 07:25:44 51°21.376 2°54.378 -999 286 8.7 101900 100
2006-04-26 07:25:51 51°21.397 2°54.393 -999 285 8.7 101900 100
2006-04-26 07:25:56 51°21.412 2°54.404 -999 287 8.7 101900 100
2006-04-26 07:26:00 51°21.423 2°54.413 -999 286 8.7 101900 100
2006-04-26 07:26:06 51°21.441 2°54.425 -999 293 8.7 101900 100
2006-04-26 07:26:12 51°21.459 2°54.438 -999 285 8.7 101900 100
2006-04-26 07:26:16 51°21.471 2°54.446 -999 293 8.7 101900 100
2006-04-26 07:26:20 51°21.483 2°54.455 -999 285 8.7 101900 100
2006-04-26 07:26:26 51°21.501 2°54.466 -999 287 8.7 101900 100
2006-04-26 07:26:31 51°21.516 2°54.475 -999 293 8.7 101910 100
2006-04-26 07:26:36 51°21.531 2°54.484 -999 287 8.7 101910 100
2006-04-26 07:26:40 51°21.543 2°54.492 -999 287 8.7 101900 100
2006-04-26 07:26:47 51°21.564 2°54.505 -999 288 8.7 101900 100
2006-04-26 07:26:51 51°21.576 2°54.512 -999 288 8.7 101900 100
2006-04-26 07:26:56 51°21.592 2°54.521 -999 287 8.7 101900 100
2006-04-26 07:27:01 51°21.607 2°54.53 -999 286 8.7 101890 100
2006-04-26 07:27:06 51°21.623 2°54.537 -999 288 8.7 101890 100
2006-04-26 07:27:11 51°21.638 2°54.545 -999 287 8.7 101900 100
2006-04-26 07:27:16 51°21.653 2°54.552 -999 287 8.7 101900 100
2006-04-26 07:27:21 51°21.669 2°54.56 -999 293 8.7 101900 100
2006-04-26 07:27:24 51°21.679 2°54.563 -999 289 8.7 101900 100
2006-04-26 07:27:31 51°21.701 2°54.574 -999 286 8.7 101890 100
2006-04-26 07:27:36 51°21.717 2°54.58 -999 293 8.7 101890 100
2006-04-26 07:27:42 51°21.735 2°54.59 -999 281 8.7 101900 100
2006-04-26 07:27:46 51°21.748 2°54.595 -999 293 8.7 101900 100
2006-04-26 07:27:51 51°21.764 2°54.603 -999 287 8.7 101900 100
2006-04-26 07:27:57 51°21.783 2°54.612 -999 294 8.7 101900 100
2006-04-26 07:28:01 51°21.796 2°54.618 -999 292 8.7 101900 100
2006-04-26 07:28:06 51°21.812 2°54.625 -999 289 8.7 101900 100
2006-04-26 07:28:12 51°21.831 2°54.632 -999 299 8.7 101890 100
2006-04-26 07:28:17 51°21.847 2°54.639 -999 294 8.7 101890 100
2006-04-26 07:28:20 51°21.857 2°54.643 -999 294 8.7 101900 100
2006-04-26 07:28:26 51°21.876 2°54.651 -999 293 8.7 101900 100
2006-04-26 07:28:32 51°21.895 2°54.66 -999 291 8.7 101890 100
2006-04-26 07:28:36 51°21.907 2°54.666 -999 292 8.7 101890 100
2006-04-26 07:28:42 51°21.926 2°54.676 -999 288 8.6 101890 100
2006-04-26 07:28:47 51°21.942 2°54.684 -999 288 8.6 101890 100
2006-04-26 07:28:51 51°21.955 2°54.69 -999 298 8.7 101900 100
2006-04-26 07:28:56 51°21.971 2°54.697 -999 281 8.7 101900 100
2006-04-26 07:29:01 51°21.987 2°54.704 -999 283 8.7 101890 100
2006-04-26 07:29:07 51°22.006 2°54.711 -999 286 8.7 101890 100
2006-04-26 07:29:11 51°22.019 2°54.717 -999 287 8.7 101890 100
2006-04-26 07:29:16 51°22.035 2°54.722 -999 291 8.7 101890 100
2006-04-26 07:29:21 51°22.052 2°54.729 -999 283 8.6 101890 100
2006-04-26 07:29:26 51°22.068 2°54.734 -999 293 8.6 101890 100
2006-04-26 07:29:32 51°22.088 2°54.741 -999 294 8.6 101890 100
2006-04-26 07:29:36 51°22.101 2°54.745 -999 295 8.6 101890 100
2006-04-26 07:29:41 51°22.117 2°54.751 -999 298 8.7 101890 100
2006-04-26 07:29:46 51°22.133 2°54.757 -999 293 8.7 101890 100
2006-04-26 07:29:51 51°22.149 2°54.763 -999 285 8.6 101890 100
2006-04-26 07:29:56 51°22.165 2°54.769 -999 285 8.6 101890 100
2006-04-26 07:30:02 51°22.185 2°54.775 -999 286 8.7 101890 100
2006-04-26 07:30:06 51°22.198 2°54.78 -999 301 8.7 101890 100
2006-04-26 07:30:11 51°22.215 2°54.785 -999 297 8.6 101890 100
2006-04-26 07:30:17 51°22.235 2°54.79 -999 301 8.6 101890 100
2006-04-26 07:30:20 51°22.244 2°54.793 -999 298 8.6 101890 100
2006-04-26 07:30:27 51°22.268 2°54.8 -999 300 8.6 101890 100
2006-04-26 07:30:32 51°22.284 2°54.805 -999 296 8.6 101890 100
2006-04-26 07:30:36 51°22.297 2°54.81 -999 294 8.6 101890 100
2006-04-26 07:30:42 51°22.317 2°54.815 -999 296 8.7 101890 100
2006-04-26 07:30:46 51°22.33 2°54.82 -999 293 8.7 101890 100
2006-04-26 07:30:52 51°22.35 2°54.826 -999 292 8.6 101890 100
2006-04-26 07:30:56 51°22.363 2°54.83 -999 298 8.6 101890 100
2006-04-26 07:31:02 51°22.383 2°54.835 -999 289 8.6 101890 100
2006-04-26 07:31:07 51°22.399 2°54.84 -999 295 8.6 101890 100
2006-04-26 07:31:12 51°22.416 2°54.844 -999 299 8.6 101880 100
2006-04-26 07:31:16 51°22.429 2°54.848 -999 296 8.6 101880 100
2006-04-26 07:31:21 51°22.445 2°54.852 -999 298 8.6 101890 100
2006-04-26 07:31:26 51°22.461 2°54.857 -999 300 8.6 101890 100
2006-04-26 07:31:31 51°22.478 2°54.862 -999 292 8.6 101890 100
2006-04-26 07:31:36 51°22.494 2°54.866 -999 289 8.6 101890 100
2006-04-26 07:31:41 51°22.511 2°54.873 -999 288 8.6 101890 100
2006-04-26 07:31:46 51°22.527 2°54.877 -999 291 8.6 101890 100
2006-04-26 07:31:52 51°22.547 2°54.884 -999 296 8.6 101890 100
2006-04-26 07:31:57 51°22.564 2°54.889 -999 293 8.6 101890 100
2006-04-26 07:32:02 51°22.58 2°54.894 -999 294 8.6 101890 100
2006-04-26 07:32:06 51°22.593 2°54.899 -999 296 8.6 101890 100
2006-04-26 07:32:11 51°22.609 2°54.905 -999 296 8.6 101890 100
2006-04-26 07:32:17 51°22.629 2°54.911 -999 296 8.6 101890 100
2006-04-26 07:32:20 51°22.638 2°54.915 -999 289 8.6 101890 100
2006-04-26 07:32:26 51°22.658 2°54.921 -999 299 8.6 101890 100
2006-04-26 07:32:31 51°22.674 2°54.927 -999 300 8.6 101890 100
2006-04-26 07:32:36 51°22.69 2°54.932 -999 291 8.6 101890 100
2006-04-26 07:32:41 51°22.707 2°54.937 -999 292 8.6 101900 100
2006-04-26 07:32:47 51°22.727 2°54.942 -999 289 8.6 101900 100
2006-04-26 07:32:51 51°22.74 2°54.946 -999 290 8.6 101890 100
2006-04-26 07:32:56 51°22.756 2°54.951 -999 291 8.6 101890 100
2006-04-26 07:33:02 51°22.775 2°54.957 -999 293 8.6 101890 100
2006-04-26 07:33:07 51°22.791 2°54.963 -999 291 8.6 101890 100
2006-04-26 07:33:11 51°22.804 2°54.967 -999 290 8.6 101890 100
2006-04-26 07:33:16 51°22.82 2°54.974 -999 286 8.6 101890 100
2006-04-26 07:33:22 51°22.839 2°54.981 -999 287 8.6 101890 100
2006-04-26 07:33:26 51°22.852 2°54.987 -999 303 8.6 101890 100
2006-04-26 07:33:31 51°22.868 2°54.993 -999 287 8.6 101890 100
2006-04-26 07:33:36 51°22.884 2°55 -999 291 8.6 101890 100
2006-04-26 07:33:40 51°22.898 2°55.004 -999 296 8.6 101900 100
2006-04-26 07:33:47 51°22.92 2°55.012 -999 310 8.6 101900 100
2006-04-26 07:33:51 51°22.933 2°55.016 -999 295 8.6 101890 100
2006-04-26 07:33:56 51°22.95 2°55.021 -999 296 8.6 101890 100
2006-04-26 07:34:01 51°22.966 2°55.026 -999 298 8.6 101900 100
2006-04-26 07:34:06 51°22.982 2°55.032 -999 293 8.6 101900 100
2006-04-26 07:34:11 51°22.998 2°55.037 -999 296 8.6 101890 100
2006-04-26 07:34:16 51°23.015 2°55.042 -999 295 8.6 101890 100
2006-04-26 07:34:21 51°23.031 2°55.049 -999 290 8.6 101890 100
2006-04-26 07:34:26 51°23.047 2°55.053 -999 291 8.6 101890 100
2006-04-26 07:34:32 51°23.066 2°55.061 -999 294 8.6 101900 100
2006-04-26 07:34:36 51°23.079 2°55.066 -999 297 8.6 101900 100
2006-04-26 07:34:41 51°23.095 2°55.073 -999 305 8.6 101900 100
2006-04-26 07:34:46 51°23.111 2°55.079 -999 304 8.6 101900 100
2006-04-26 07:34:52 51°23.13 2°55.087 -999 298 8.6 101890 100
2006-04-26 07:34:57 51°23.145 2°55.094 -999 298 8.6 101890 100
2006-04-26 07:35:00 51°23.155 2°55.098 -999 294 8.6 101890 100
2006-04-26 07:35:07 51°23.177 2°55.107 -999 294 8.6 101890 100
2006-04-26 07:35:11 51°23.19 2°55.113 -999 293 8.6 101890 100
2006-04-26 07:35:16 51°23.206 2°55.119 -999 295 8.6 101890 100
2006-04-26 07:35:22 51°23.225 2°55.126 -999 297 8.6 101890 100
2006-04-26 07:35:27 51°23.24 2°55.132 -999 309 8.6 101890 100
2006-04-26 07:35:31 51°23.253 2°55.137 -999 301 8.6 101890 100
2006-04-26 07:35:36 51°23.269 2°55.142 -999 299 8.6 101890 100
2006-04-26 07:35:41 51°23.286 2°55.147 -999 298 8.6 101890 100
2006-04-26 07:35:47 51°23.305 2°55.152 -999 296 8.6 101890 100
2006-04-26 07:35:52 51°23.321 2°55.157 -999 297 8.6 101890 100
2006-04-26 07:35:57 51°23.338 2°55.161 -999 299 8.6 101890 100
2006-04-26 07:36:00 51°23.348 2°55.163 -999 293 8.6 101890 100
2006-04-26 07:36:07 51°23.37 2°55.168 -999 297 8.6 101890 100
2006-04-26 07:36:11 51°23.383 2°55.172 -999 301 8.6 101890 100
2006-04-26 07:36:16 51°23.399 2°55.176 -999 297 8.6 101890 100
2006-04-26 07:36:21 51°23.416 2°55.181 -999 295 8.6 101890 100
2006-04-26 07:36:26 51°23.432 2°55.185 -999 294 8.6 101890 100
2006-04-26 07:36:31 51°23.448 2°55.19 -999 292 8.6 101890 100
2006-04-26 07:36:36 51°23.464 2°55.194 -999 300 8.6 101890 100
2006-04-26 07:36:41 51°23.481 2°55.198 -999 296 8.6 101890 100
2006-04-26 07:36:46 51°23.496 2°55.203 -999 292 8.6 101890 100
2006-04-26 07:36:51 51°23.512 2°55.207 -999 293 8.6 101890 100
2006-04-26 07:36:57 51°23.531 2°55.213 -999 292 8.6 101890 100
2006-04-26 07:37:02 51°23.547 2°55.218 -999 294 8.6 101890 100
2006-04-26 07:37:06 51°23.56 2°55.222 -999 293 8.6 101890 100
2006-04-26 07:37:11 51°23.576 2°55.226 -999 306 8.6 101890 100
2006-04-26 07:37:16 51°23.592 2°55.23 -999 292 8.6 101890 100
2006-04-26 07:37:21 51°23.609 2°55.234 -999 289 8.6 101890 100
2006-04-26 07:37:27 51°23.628 2°55.239 -999 291 8.6 101890 100
2006-04-26 07:37:32 51°23.643 2°55.243 -999 293 8.6 101880 100
2006-04-26 07:37:36 51°23.656 2°55.245 -999 306 8.6 101880 100
2006-04-26 07:37:41 51°23.672 2°55.249 -999 296 8.6 101890 100
2006-04-26 07:37:46 51°23.688 2°55.253 -999 292 8.6 101890 100
2006-04-26 07:37:51 51°23.704 2°55.258 -999 288 8.6 101880 100
2006-04-26 07:37:56 51°23.72 2°55.261 -999 290 8.6 101880 100
2006-04-26 07:38:01 51°23.735 2°55.266 -999 301 8.6 101890 100
2006-04-26 07:38:07 51°23.754 2°55.271 -999 293 8.6 101890 100
2006-04-26 07:38:12 51°23.77 2°55.276 -999 298 8.6 101890 100
2006-04-26 07:38:17 51°23.786 2°55.281 -999 301 8.6 101890 100
2006-04-26 07:38:21 51°23.799 2°55.284 -999 295 8.6 101890 100
2006-04-26 07:38:27 51°23.817 2°55.29 -999 298 8.6 101890 100
2006-04-26 07:38:32 51°23.833 2°55.293 -999 290 8.6 101890 100
2006-04-26 07:38:37 51°23.849 2°55.298 -999 291 8.6 101890 100
2006-04-26 07:38:39 51°23.855 2°55.299 -999 291 8.6 101890 100
2006-04-26 07:38:46 51°23.877 2°55.306 -999 289 8.6 101890 100
2006-04-26 07:38:51 51°23.892 2°55.311 -999 288 8.6 101890 100
2006-04-26 07:38:56 51°23.908 2°55.316 -999 301 8.6 101890 100
2006-04-26 07:39:00 51°23.92 2°55.32 -999 302 8.6 101890 100
2006-04-26 07:39:06 51°23.939 2°55.325 -999 296 8.6 101890 100
2006-04-26 07:39:12 51°23.959 2°55.33 -999 298 8.6 101890 100
2006-04-26 07:39:17 51°23.975 2°55.334 -999 288 8.6 101890 100
2006-04-26 07:39:20 51°23.984 2°55.336 -999 294 8.6 101890 100
2006-04-26 07:39:27 51°24.006 2°55.343 -999 293 8.6 101890 100
2006-04-26 07:39:31 51°24.019 2°55.347 -999 295 8.6 101890 100
2006-04-26 07:39:36 51°24.035 2°55.351 -999 292 8.6 101890 100
2006-04-26 07:39:42 51°24.055 2°55.356 -999 302 8.6 101890 100
2006-04-26 07:39:47 51°24.071 2°55.359 -999 304 8.6 101890 100
2006-04-26 07:39:51 51°24.084 2°55.363 -999 301 8.6 101880 100
2006-04-26 07:39:56 51°24.1 2°55.365 -999 301 8.6 101880 100
2006-04-26 07:40:00 51°24.113 2°55.368 -999 294 8.6 101890 100
2006-04-26 07:40:04 51°24.126 2°55.371 -999 291 8.6 101890 100
2006-04-26 07:40:11 51°24.147 2°55.377 -999 291 8.6 101890 100
2006-04-26 07:40:16 51°24.163 2°55.382 -999 290 8.6 101890 100
2006-04-26 07:40:21 51°24.178 2°55.388 -999 289 8.6 101880 100
2006-04-26 07:40:26 51°24.194 2°55.392 -999 293 8.6 101880 100
2006-04-26 07:40:31 51°24.21 2°55.397 -999 294 8.6 101880 100
2006-04-26 07:40:36 51°24.226 2°55.401 -999 293 8.6 101880 100
2006-04-26 07:40:41 51°24.242 2°55.406 -999 299 8.6 101890 100
2006-04-26 07:40:47 51°24.261 2°55.411 -999 293 8.6 101890 100
2006-04-26 07:40:52 51°24.277 2°55.416 -999 290 8.6 101890 100
2006-04-26 07:40:57 51°24.293 2°55.421 -999 292 8.6 101890 100
2006-04-26 07:41:01 51°24.306 2°55.425 -999 299 8.6 101890 100
2006-04-26 07:41:06 51°24.322 2°55.428 -999 302 8.6 101890 100
2006-04-26 07:41:11 51°24.338 2°55.433 -999 300 8.6 101890 100
2006-04-26 07:41:16 51°24.355 2°55.437 -999 300 8.6 101890 100
2006-04-26 07:41:22 51°24.374 2°55.443 -999 295 8.6 101890 100
2006-04-26 07:41:26 51°24.387 2°55.446 -999 303 8.6 101890 100
2006-04-26 07:41:31 51°24.403 2°55.45 -999 296 8.6 101900 100
2006-04-26 07:41:36 51°24.419 2°55.453 -999 -999 8.6 101900 100
2006-04-26 07:41:42 51°24.438 2°55.459 -999 303 8.6 101890 100
2006-04-26 07:41:47 51°24.455 2°55.464 -999 299 8.6 101890 100
2006-04-26 07:41:52 51°24.471 2°55.468 -999 293 8.6 101890 100
2006-04-26 07:41:56 51°24.484 2°55.472 -999 297 8.6 101890 100
2006-04-26 07:42:01 51°24.501 2°55.476 -999 298 8.6 101890 100
2006-04-26 07:42:04 51°24.51 2°55.479 -999 299 8.6 101890 100
2006-04-26 07:42:11 51°24.533 2°55.485 -999 309 8.6 101890 100
2006-04-26 07:42:16 51°24.549 2°55.49 -999 299 8.6 101890 100
2006-04-26 07:42:22 51°24.569 2°55.496 -999 308 8.6 101890 100
2006-04-26 07:42:27 51°24.586 2°55.502 -999 303 8.6 101890 100
2006-04-26 07:42:31 51°24.599 2°55.505 -999 298 8.6 101890 100
2006-04-26 07:42:36 51°24.615 2°55.51 -999 294 8.6 101890 100
2006-04-26 07:42:40 51°24.629 2°55.514 -999 304 8.6 101890 100
2006-04-26 07:42:47 51°24.652 2°55.52 -999 303 8.6 101890 100
2006-04-26 07:42:52 51°24.668 2°55.525 -999 299 8.6 101890 100
2006-04-26 07:42:56 51°24.681 2°55.529 -999 288 8.6 101890 100
2006-04-26 07:43:02 51°24.7 2°55.536 -999 295 8.6 101890 100
2006-04-26 07:43:06 51°24.713 2°55.54 -999 301 8.6 101890 100
2006-04-26 07:43:11 51°24.73 2°55.547 -999 296 8.6 101880 100
2006-04-26 07:43:16 51°24.746 2°55.552 -999 288 8.6 101880 100
2006-04-26 07:43:19 51°24.756 2°55.556 -999 292 8.6 101890 100
2006-04-26 07:43:26 51°24.779 2°55.565 -999 295 8.6 101890 100
2006-04-26 07:43:32 51°24.799 2°55.571 -999 306 8.6 101890 100
2006-04-26 07:43:37 51°24.816 2°55.577 -999 303 8.6 101890 100
2006-04-26 07:43:42 51°24.832 2°55.581 -999 296 8.6 101890 100
2006-04-26 07:43:46 51°24.846 2°55.586 -999 301 8.6 101890 100
2006-04-26 07:43:51 51°24.862 2°55.592 -999 302 8.6 101890 100
2006-04-26 07:43:56 51°24.879 2°55.597 -999 300 8.6 101890 100
2006-04-26 07:44:01 51°24.895 2°55.603 -999 303 8.6 101890 100
2006-04-26 07:44:07 51°24.915 2°55.609 -999 309 8.6 101890 100
2006-04-26 07:44:11 51°24.929 2°55.614 -999 300 8.6 101890 100
2006-04-26 07:44:17 51°24.949 2°55.62 -999 306 8.6 101890 100
2006-04-26 07:44:22 51°24.966 2°55.626 -999 302 8.6 101890 100
2006-04-26 07:44:27 51°24.982 2°55.631 -999 301 8.6 101890 100
2006-04-26 07:44:31 51°24.995 2°55.636 -999 300 8.6 101890 100
2006-04-26 07:44:36 51°25.012 2°55.642 -999 304 8.6 101890 100
2006-04-26 07:44:41 51°25.029 2°55.648 -999 293 8.6 101890 100
2006-04-26 07:44:46 51°25.045 2°55.655 -999 302 8.6 101890 100
2006-04-26 07:44:52 51°25.065 2°55.662 -999 298 8.6 101880 100
2006-04-26 07:44:56 51°25.078 2°55.668 -999 298 8.6 101880 100
2006-04-26 07:45:02 51°25.098 2°55.674 -999 299 8.6 101890 100
2006-04-26 07:45:07 51°25.115 2°55.68 -999 305 8.6 101890 100
2006-04-26 07:45:11 51°25.129 2°55.683 -999 301 8.6 101890 100
2006-04-26 07:45:16 51°25.145 2°55.688 -999 292 8.6 101890 100
2006-04-26 07:45:20 51°25.158 2°55.692 -999 304 8.6 101890 100
2006-04-26 07:45:26 51°25.178 2°55.698 -999 302 8.6 101890 100
2006-04-26 07:45:31 51°25.194 2°55.703 -999 302 8.6 101890 100
2006-04-26 07:45:36 51°25.21 2°55.709 -999 304 8.6 101890 100
2006-04-26 07:45:41 51°25.227 2°55.714 -999 301 8.6 101890 100
2006-04-26 07:45:47 51°25.246 2°55.722 -999 303 8.6 101890 100
2006-04-26 07:45:51 51°25.259 2°55.725 -999 300 8.6 101890 100
2006-04-26 07:45:57 51°25.279 2°55.732 -999 300 8.6 101890 100
2006-04-26 07:46:01 51°25.292 2°55.735 -999 299 8.6 101890 100
2006-04-26 07:46:06 51°25.308 2°55.741 -999 301 8.6 101890 100
2006-04-26 07:46:11 51°25.324 2°55.746 -999 298 8.6 101890 100
2006-04-26 07:46:17 51°25.343 2°55.752 -999 301 8.6 101890 100
2006-04-26 07:46:21 51°25.356 2°55.757 -999 303 8.6 101890 100
2006-04-26 07:46:24 51°25.365 2°55.76 -999 301 8.6 101890 100
2006-04-26 07:46:31 51°25.387 2°55.768 -999 302 8.6 101880 100
2006-04-26 07:46:36 51°25.404 2°55.773 -999 305 8.6 101880 100
2006-04-26 07:46:41 51°25.42 2°55.779 -999 305 8.6 101880 100
2006-04-26 07:46:47 51°25.439 2°55.784 -999 302 8.6 101880 100
2006-04-26 07:46:51 51°25.452 2°55.786 -999 307 8.6 101890 100
2006-04-26 07:46:56 51°25.468 2°55.791 -999 301 8.6 101890 100
2006-04-26 07:47:01 51°25.485 2°55.793 -999 306 8.6 101880 100
2006-04-26 07:47:06 51°25.501 2°55.798 -999 298 8.6 101880 100
2006-04-26 07:47:11 51°25.517 2°55.802 -999 297 8.6 101880 100
2006-04-26 07:47:16 51°25.533 2°55.805 -999 300 8.6 101880 100
2006-04-26 07:47:21 51°25.55 2°55.808 -999 307 8.6 101880 100
2006-04-26 07:47:26 51°25.566 2°55.813 -999 304 8.6 101880 100
2006-04-26 07:47:30 51°25.579 2°55.815 -999 300 8.6 101880 100
2006-04-26 07:47:36 51°25.598 2°55.82 -999 303 8.6 101880 100
2006-04-26 07:47:39 51°25.609 2°55.821 -999 302 8.6 101880 100
2006-04-26 07:47:46 51°25.632 2°55.825 -999 302 8.6 101880 100
2006-04-26 07:47:52 51°25.652 2°55.827 -999 303 8.6 101880 100
2006-04-26 07:47:57 51°25.669 2°55.829 -999 305 8.6 101880 100
2006-04-26 07:48:00 51°25.678 2°55.831 -999 306 8.6 101880 100
2006-04-26 07:48:07 51°25.701 2°55.833 -999 310 8.6 101880 100
2006-04-26 07:48:11 51°25.714 2°55.836 -999 300 8.6 101870 100
2006-04-26 07:48:16 51°25.73 2°55.839 -999 297 8.6 101870 100
2006-04-26 07:48:20 51°25.743 2°55.841 -999 306 8.6 101880 100
2006-04-26 07:48:27 51°25.766 2°55.846 -999 292 8.6 101880 100
2006-04-26 07:48:32 51°25.782 2°55.85 -999 302 8.6 101880 100
2006-04-26 07:48:36 51°25.795 2°55.852 -999 298 8.6 101880 100
2006-04-26 07:48:42 51°25.814 2°55.856 -999 298 8.6 101880 100
2006-04-26 07:48:46 51°25.827 2°55.859 -999 297 8.6 101880 100
2006-04-26 07:48:51 51°25.843 2°55.862 -999 300 8.6 101880 100
2006-04-26 07:48:56 51°25.859 2°55.865 -999 303 8.6 101880 100
2006-04-26 07:49:00 51°25.872 2°55.867 -999 306 8.6 101880 100
2006-04-26 07:49:07 51°25.895 2°55.871 -999 304 8.6 101880 100
2006-04-26 07:49:11 51°25.908 2°55.872 -999 303 8.6 101880 100
2006-04-26 07:49:16 51°25.925 2°55.875 -999 303 8.6 101880 100
2006-04-26 07:49:21 51°25.941 2°55.876 -999 304 8.6 101880 100
2006-04-26 07:49:26 51°25.957 2°55.88 -999 296 8.6 101880 100
2006-04-26 07:49:31 51°25.973 2°55.882 -999 297 8.6 101870 100
2006-04-26 07:49:36 51°25.99 2°55.886 -999 299 8.6 101870 100
2006-04-26 07:49:40 51°26.002 2°55.889 -999 296 8.6 101880 100
2006-04-26 07:49:47 51°26.025 2°55.894 -999 303 8.6 101880 100
2006-04-26 07:49:51 51°26.038 2°55.896 -999 300 8.6 101880 100
2006-04-26 07:49:56 51°26.054 2°55.9 -999 300 8.6 101880 100
2006-04-26 07:50:00 51°26.067 2°55.904 -999 294 8.6 101880 100
2006-04-26 07:50:06 51°26.086 2°55.907 -999 298 8.6 101880 100
2006-04-26 07:50:12 51°26.105 2°55.911 -999 301 8.6 101890 100
2006-04-26 07:50:16 51°26.118 2°55.914 -999 305 8.6 101890 100
2006-04-26 07:50:21 51°26.135 2°55.916 -999 297 8.6 101880 100
2006-04-26 07:50:24 51°26.144 2°55.919 -999 302 8.6 101880 100
2006-04-26 07:50:31 51°26.167 2°55.923 -999 295 8.6 101880 100
2006-04-26 07:50:36 51°26.183 2°55.926 -999 302 8.6 101880 100
2006-04-26 07:50:40 51°26.196 2°55.928 -999 297 8.6 101870 100
2006-04-26 07:50:46 51°26.216 2°55.931 -999 306 8.6 101870 100
2006-04-26 07:50:51 51°26.232 2°55.934 -999 300 8.6 101880 100
2006-04-26 07:50:57 51°26.253 2°55.936 -999 298 8.6 101880 100
2006-04-26 07:51:02 51°26.269 2°55.937 -999 295 8.6 101870 100
2006-04-26 07:51:07 51°26.286 2°55.938 -999 295 8.6 101870 100
2006-04-26 07:51:12 51°26.302 2°55.94 -999 296 8.6 101880 100
2006-04-26 07:51:16 51°26.316 2°55.941 -999 298 8.6 101880 100
2006-04-26 07:51:22 51°26.335 2°55.943 -999 307 8.6 101870 100
2006-04-26 07:51:27 51°26.352 2°55.945 -999 300 8.6 101870 100
2006-04-26 07:51:32 51°26.368 2°55.947 -999 305 8.6 101880 100
2006-04-26 07:51:36 51°26.381 2°55.948 -999 300 8.6 101880 100
2006-04-26 07:51:41 51°26.398 2°55.95 -999 304 8.6 101880 100
2006-04-26 07:51:47 51°26.417 2°55.952 -999 307 8.6 101880 100
2006-04-26 07:51:51 51°26.43 2°55.953 -999 298 8.6 101870 100
2006-04-26 07:51:56 51°26.447 2°55.956 -999 305 8.6 101870 100
2006-04-26 07:52:00 51°26.46 2°55.957 -999 302 8.6 101880 100
2006-04-26 07:52:06 51°26.479 2°55.959 -999 305 8.6 101880 100
2006-04-26 07:52:12 51°26.498 2°55.963 -999 299 8.6 101870 100
2006-04-26 07:52:16 51°26.511 2°55.964 -999 293 8.6 101870 100
2006-04-26 07:52:21 51°26.527 2°55.966 -999 299 8.6 101870 100
2006-04-26 07:52:26 51°26.543 2°55.97 -999 295 8.6 101870 100
2006-04-26 07:52:32 51°26.563 2°55.972 -999 295 8.6 101870 100
2006-04-26 07:52:36 51°26.575 2°55.975 -999 299 8.6 101870 100
2006-04-26 07:52:40 51°26.588 2°55.976 -999 297 8.6 101870 100
2006-04-26 07:52:46 51°26.608 2°55.979 -999 292 8.6 101870 100
2006-04-26 07:52:51 51°26.624 2°55.98 -999 294 8.6 101870 100
2006-04-26 07:52:57 51°26.644 2°55.983 -999 295 8.6 101870 100
2006-04-26 07:52:59 51°26.65 2°55.984 -999 306 8.6 101870 100
2006-04-26 07:53:06 51°26.673 2°55.986 -999 299 8.6 101870 100
2006-04-26 07:53:12 51°26.692 2°55.989 -999 305 8.6 101880 100
2006-04-26 07:53:17 51°26.709 2°55.991 -999 296 8.6 101880 100
2006-04-26 07:53:21 51°26.721 2°55.993 -999 296 8.6 101870 100
2006-04-26 07:53:26 51°26.738 2°55.995 -999 295 8.6 101870 100
2006-04-26 07:53:32 51°26.757 2°55.999 -999 296 8.6 101870 100
2006-04-26 07:53:36 51°26.77 2°56.001 -999 298 8.6 101870 100
2006-04-26 07:53:42 51°26.79 2°56.003 -999 303 8.6 101870 100
2006-04-26 07:53:47 51°26.806 2°56.006 -999 301 8.6 101870 100
2006-04-26 07:53:51 51°26.819 2°56.006 -999 304 8.6 101870 100
2006-04-26 07:53:56 51°26.835 2°56.009 -999 298 8.6 101870 100
2006-04-26 07:54:02 51°26.854 2°56.011 -999 293 8.6 101870 100
2006-04-26 07:54:07 51°26.87 2°56.014 -999 293 8.6 101870 100
2006-04-26 07:54:12 51°26.886 2°56.017 -999 301 8.6 101870 100
2006-04-26 07:54:17 51°26.902 2°56.019 -999 294 8.6 101870 100
2006-04-26 07:54:20 51°26.912 2°56.021 -999 301 8.6 101870 100
2006-04-26 07:54:27 51°26.935 2°56.023 -999 303 8.6 101870 100
2006-04-26 07:54:32 51°26.951 2°56.026 -999 296 8.6 101870 100
2006-04-26 07:54:35 51°26.961 2°56.026 -999 -999 8.6 101870 100
2006-04-26 07:54:41 51°26.981 2°56.028 -999 301 8.6 101880 100
2006-04-26 07:54:46 51°26.998 2°56.028 -999 297 8.6 101880 100
2006-04-26 07:54:51 51°27.014 2°56.03 -999 303 8.6 101880 100
2006-04-26 07:54:56 51°27.031 2°56.03 -999 294 8.6 101880 100
2006-04-26 07:55:02 51°27.05 2°56.033 -999 303 8.6 101870 100
2006-04-26 07:55:06 51°27.063 2°56.033 -999 308 8.6 101870 100
2006-04-26 07:55:11 51°27.079 2°56.034 -999 299 8.6 101870 100
2006-04-26 07:55:17 51°27.099 2°56.035 -999 304 8.6 101870 100
2006-04-26 07:55:22 51°27.115 2°56.037 -999 306 8.6 101870 100
2006-04-26 07:55:26 51°27.129 2°56.038 -999 307 8.6 101870 100
2006-04-26 07:55:31 51°27.145 2°56.04 -999 301 8.6 101870 100
2006-04-26 07:55:36 51°27.162 2°56.042 -999 299 8.6 101870 100
2006-04-26 07:55:41 51°27.178 2°56.044 -999 298 8.6 101870 100
2006-04-26 07:55:47 51°27.198 2°56.047 -999 297 8.6 101870 100
2006-04-26 07:55:51 51°27.211 2°56.048 -999 299 8.6 101870 100
2006-04-26 07:55:56 51°27.227 2°56.05 -999 300 8.6 101870 100
2006-04-26 07:56:02 51°27.247 2°56.053 -999 303 8.6 101870 100
2006-04-26 07:56:07 51°27.263 2°56.056 -999 299 8.6 101870 100
2006-04-26 07:56:11 51°27.276 2°56.057 -999 294 8.6 101870 100
2006-04-26 07:56:17 51°27.296 2°56.06 -999 297 8.6 101870 100
2006-04-26 07:56:22 51°27.313 2°56.061 -999 295 8.6 101870 100
2006-04-26 07:56:27 51°27.329 2°56.063 -999 300 8.6 101870 100
2006-04-26 07:56:31 51°27.343 2°56.064 -999 301 8.5 101870 100
2006-04-26 07:56:37 51°27.363 2°56.066 -999 303 8.5 101870 100
2006-04-26 07:56:40 51°27.373 2°56.067 -999 296 8.6 101860 100
2006-04-26 07:56:47 51°27.396 2°56.07 -999 299 8.6 101860 100
2006-04-26 07:56:51 51°27.409 2°56.072 -999 301 8.6 101870 100
2006-04-26 07:56:57 51°27.429 2°56.074 -999 302 8.6 101870 100
2006-04-26 07:57:02 51°27.445 2°56.077 -999 304 8.6 101870 100
2006-04-26 07:57:07 51°27.462 2°56.079 -999 302 8.6 101870 100
2006-04-26 07:57:12 51°27.479 2°56.08 -999 300 8.6 101870 100
2006-04-26 07:57:16 51°27.492 2°56.082 -999 297 8.6 101870 100